createdAt,value
2019-01-16T00:01:31.045Z,5.10
2019-01-16T00:04:18.525Z,5.10
2019-01-16T00:07:03.124Z,5.10
2019-01-16T00:09:46.267Z,5.10
2019-01-16T00:12:32.512Z,5.30
2019-01-16T00:15:18.719Z,5.30
2019-01-16T00:18:08.841Z,5.30
2019-01-16T00:20:54.531Z,5.50
2019-01-16T00:23:34.404Z,5.40
2019-01-16T00:26:17.738Z,5.20
2019-01-16T00:29:16.893Z,5.30
2019-01-16T00:32:06.603Z,5.30
2019-01-16T00:35:09.418Z,5.30
2019-01-16T00:37:55.420Z,5.20
2019-01-16T00:40:45.446Z,5.20
2019-01-16T00:43:25.056Z,5.20
2019-01-16T00:46:27.271Z,5.30
2019-01-16T00:49:08.090Z,5.30
2019-01-16T00:52:07.180Z,5.10
2019-01-16T00:54:52.681Z,5.10
2019-01-16T00:57:51.675Z,5.30
2019-01-16T01:00:41.632Z,5.20
2019-01-16T01:03:34.585Z,5.30
2019-01-16T01:06:20.094Z,5.40
2019-01-16T01:09:07.309Z,5.50
2019-01-16T01:11:56.383Z,5.20
2019-01-16T01:14:52.625Z,5.10
2019-01-16T01:17:35.549Z,5.00
2019-01-16T01:20:16.144Z,5.10
2019-01-16T01:23:03.809Z,5.10
2019-01-16T01:25:51.761Z,5.20
2019-01-16T01:28:37.977Z,5.30
2019-01-16T01:31:34.515Z,5.40
2019-01-16T01:34:17.524Z,5.60
2019-01-16T01:37:08.752Z,5.30
2019-01-16T01:39:47.880Z,5.20
2019-01-16T01:42:35.075Z,5.10
2019-01-16T01:45:22.374Z,5.00
2019-01-16T01:48:15.113Z,5.30
2019-01-16T01:50:55.718Z,5.40
2019-01-16T01:53:48.473Z,5.40
2019-01-16T01:56:35.954Z,5.30
2019-01-16T01:59:23.055Z,5.30
2019-01-16T02:02:09.245Z,5.50
2019-01-16T02:04:51.693Z,5.40
2019-01-16T02:07:38.787Z,5.50
2019-01-16T02:10:26.130Z,5.40
2019-01-16T02:13:08.652Z,5.00
2019-01-16T02:16:10.818Z,5.10
2019-01-16T02:18:56.325Z,5.00
2019-01-16T02:21:41.804Z,4.90
2019-01-16T02:24:27.272Z,5.10
2019-01-16T02:27:13.342Z,5.30
2019-01-16T02:30:10.003Z,5.40
2019-01-16T02:32:55.621Z,5.60
2019-01-16T02:35:44.035Z,5.40
2019-01-16T02:38:31.702Z,5.40
2019-01-16T02:41:31.484Z,5.30
2019-01-16T02:44:15.134Z,5.20
2019-01-16T02:46:54.599Z,5.20
2019-01-16T02:49:38.438Z,5.10
2019-01-16T02:52:28.070Z,5.30
2019-01-16T02:55:18.273Z,5.30
2019-01-16T02:57:58.627Z,5.40
2019-01-16T03:00:36.251Z,5.40
2019-01-16T03:03:32.706Z,5.50
2019-01-16T03:06:18.550Z,5.70
2019-01-16T03:09:11.785Z,5.60
2019-01-16T03:17:21.230Z,5.20
2019-01-16T03:20:20.183Z,5.10
2019-01-16T03:22:58.375Z,5.30
2019-01-16T03:25:38.492Z,5.40
2019-01-16T03:28:22.870Z,5.30
2019-01-16T03:31:10.182Z,5.30
2019-01-16T03:34:09.900Z,5.30
2019-01-16T03:36:59.714Z,5.30
2019-01-16T03:39:49.643Z,5.50
2019-01-16T03:42:45.769Z,5.50
2019-01-16T03:45:38.623Z,5.60
2019-01-16T03:48:34.460Z,5.60
2019-01-16T03:51:33.450Z,5.60
2019-01-16T03:54:11.518Z,5.40
2019-01-16T03:56:57.439Z,5.50
2019-01-16T03:59:44.545Z,5.20
2019-01-16T04:02:39.849Z,5.10
2019-01-16T04:05:26.917Z,5.30
2019-01-16T04:08:06.583Z,5.20
2019-01-16T04:10:52.670Z,5.40
2019-01-16T04:13:27.164Z,5.60
2019-01-16T04:16:17.581Z,5.60
2019-01-16T04:19:04.762Z,5.60
2019-01-16T04:22:01.059Z,5.40
2019-01-16T04:24:46.923Z,5.30
2019-01-16T04:27:28.140Z,5.30
2019-01-16T04:30:28.075Z,5.30
2019-01-16T04:33:06.219Z,5.20
2019-01-16T04:36:09.441Z,5.20
2019-01-16T04:38:45.997Z,5.30
2019-01-16T04:41:36.101Z,5.10
2019-01-16T04:44:23.199Z,5.00
2019-01-16T04:47:16.645Z,5.00
2019-01-16T04:50:06.792Z,5.10
2019-01-16T04:52:45.072Z,5.30
2019-01-16T04:55:32.548Z,5.10
2019-01-16T04:58:32.188Z,5.30
2019-01-16T05:01:08.584Z,5.40
2019-01-16T05:03:50.894Z,5.50
2019-01-16T05:06:36.822Z,5.40
2019-01-16T05:09:29.841Z,5.20
2019-01-16T05:12:29.522Z,5.30
2019-01-16T05:15:23.210Z,5.10
2019-01-16T05:18:02.457Z,5.00
2019-01-16T05:21:05.226Z,5.00
2019-01-16T05:24:01.468Z,5.10
2019-01-16T05:26:41.130Z,5.40
2019-01-16T05:29:37.091Z,5.50
2019-01-16T05:32:21.671Z,5.50
2019-01-16T05:35:08.850Z,5.60
2019-01-16T05:37:54.510Z,5.30
2019-01-16T05:40:38.353Z,5.30
2019-01-16T05:43:18.856Z,5.30
2019-01-16T05:46:04.968Z,5.30
2019-01-16T05:48:45.604Z,5.10
2019-01-16T05:51:37.415Z,5.20
2019-01-16T05:54:23.294Z,5.10
2019-01-16T05:57:09.674Z,5.00
2019-01-16T05:59:54.192Z,5.10
2019-01-16T06:02:36.004Z,5.10
2019-01-16T06:05:28.070Z,5.10
2019-01-16T06:08:14.375Z,4.90
2019-01-16T06:11:16.738Z,4.80
2019-01-16T06:14:03.865Z,4.90
2019-01-16T06:16:51.615Z,4.70
2019-01-16T06:19:53.902Z,4.80
2019-01-16T06:22:35.134Z,4.80
2019-01-16T06:25:24.302Z,4.80
2019-01-16T06:28:09.853Z,4.80
2019-01-16T06:31:13.039Z,4.90
2019-01-16T06:33:57.540Z,5.00
2019-01-16T06:36:56.525Z,5.10
2019-01-16T06:39:43.596Z,5.00
2019-01-16T06:42:33.805Z,5.10
2019-01-16T06:45:20.865Z,4.90
2019-01-16T06:48:06.987Z,5.00
2019-01-16T06:51:09.346Z,4.90
2019-01-16T06:53:49.793Z,5.00
2019-01-16T06:56:55.074Z,5.00
2019-01-16T06:59:51.360Z,5.00
2019-01-16T07:02:38.729Z,5.00
2019-01-16T07:05:17.356Z,4.90
2019-01-16T07:08:04.229Z,4.80
2019-01-16T07:10:41.781Z,5.00
2019-01-16T07:13:31.704Z,5.10
2019-01-16T07:16:29.644Z,5.20
2019-01-16T07:19:25.899Z,5.30
2019-01-16T07:22:13.021Z,5.50
2019-01-16T07:25:06.120Z,5.30
2019-01-16T07:28:01.596Z,5.20
2019-01-16T07:31:00.756Z,5.10
2019-01-16T07:33:47.855Z,4.90
2019-01-16T07:36:53.243Z,4.90
2019-01-16T07:39:47.980Z,5.00
2019-01-16T07:42:28.606Z,5.10
2019-01-16T07:45:28.371Z,5.00
2019-01-16T07:48:05.678Z,5.10
2019-01-16T07:50:52.858Z,5.00
2019-01-16T07:53:35.639Z,5.20
2019-01-16T07:56:31.456Z,5.20
2019-01-16T07:59:08.546Z,5.10
2019-01-16T08:01:55.416Z,5.20
2019-01-16T08:04:42.469Z,5.30
2019-01-16T08:07:38.730Z,5.40
2019-01-16T08:10:33.688Z,5.50
2019-01-16T08:13:21.556Z,5.60
2019-01-16T08:16:07.112Z,5.60
2019-01-16T08:18:50.032Z,5.50
2019-01-16T08:21:46.215Z,5.60
2019-01-16T08:24:25.342Z,5.70
2019-01-16T08:27:15.430Z,5.60
2019-01-16T08:30:01.753Z,5.60
2019-01-16T08:32:37.631Z,5.50
2019-01-16T08:35:25.861Z,5.50
2019-01-16T08:38:19.405Z,5.50
2019-01-16T08:41:18.451Z,5.70
2019-01-16T08:43:59.305Z,5.60
2019-01-16T08:46:34.342Z,5.60
2019-01-16T08:49:30.303Z,5.50
2019-01-16T08:52:07.377Z,5.60
2019-01-16T08:54:46.710Z,5.40
2019-01-16T08:57:38.658Z,5.30
2019-01-16T09:00:22.874Z,5.30
2019-01-16T09:03:10.732Z,5.30
2019-01-16T09:06:16.076Z,5.30
2019-01-16T09:09:18.166Z,5.30
2019-01-16T09:12:04.753Z,5.40
2019-01-16T09:14:50.447Z,5.60
2019-01-16T09:17:36.253Z,5.50
2019-01-16T09:20:31.030Z,5.30
2019-01-16T09:23:24.578Z,5.30
2019-01-16T09:26:17.453Z,5.30
2019-01-16T09:29:19.655Z,5.30
2019-01-16T09:32:07.359Z,5.30
2019-01-16T09:34:54.679Z,5.30
2019-01-16T09:37:58.416Z,5.30
2019-01-16T09:40:48.497Z,5.20
2019-01-16T09:43:37.795Z,5.20
2019-01-16T09:46:23.622Z,5.10
2019-01-16T09:49:10.763Z,4.90
2019-01-16T09:51:49.729Z,5.10
2019-01-16T09:54:35.704Z,5.20
2019-01-16T09:57:22.940Z,5.10
2019-01-16T10:00:15.795Z,5.10
2019-01-16T10:03:01.945Z,5.00
2019-01-16T10:05:52.212Z,5.30
2019-01-16T10:08:42.742Z,5.20
2019-01-16T10:11:23.330Z,5.30
2019-01-16T10:14:29.018Z,5.40
2019-01-16T10:20:14.486Z,5.40
2019-01-16T10:22:59.536Z,5.50
2019-01-16T10:25:51.601Z,5.50
2019-01-16T10:28:44.909Z,5.70
2019-01-16T10:31:47.248Z,5.80
2019-01-16T10:34:34.452Z,5.80
2019-01-16T10:37:27.459Z,5.80
2019-01-16T10:40:23.752Z,5.90
2019-01-16T10:43:04.610Z,5.90
2019-01-16T10:46:06.881Z,5.80
2019-01-16T10:48:56.965Z,5.90
2019-01-16T10:51:42.944Z,5.70
2019-01-16T10:54:39.478Z,5.80
2019-01-16T10:57:34.136Z,5.90
2019-01-16T11:00:19.712Z,6.00
2019-01-16T11:03:04.752Z,6.00
2019-01-16T11:05:47.080Z,6.10
2019-01-16T11:08:37.877Z,6.20
2019-01-16T11:11:20.498Z,6.10
2019-01-16T11:13:58.866Z,6.20
2019-01-16T11:16:56.726Z,6.20
2019-01-16T11:19:46.666Z,6.20
2019-01-16T11:22:42.641Z,6.00
2019-01-16T11:25:30.056Z,5.90
2019-01-16T11:28:15.733Z,5.80
2019-01-16T11:31:01.584Z,5.80
2019-01-16T11:33:46.562Z,5.90
2019-01-16T11:36:49.412Z,5.80
2019-01-16T11:39:35.031Z,5.90
2019-01-16T11:42:14.284Z,5.80
2019-01-16T11:45:19.598Z,5.60
2019-01-16T11:48:09.292Z,5.70
2019-01-16T11:50:45.325Z,5.80
2019-01-16T11:53:32.864Z,5.70
2019-01-16T11:56:32.371Z,5.60
2019-01-16T11:59:25.076Z,5.50
2019-01-16T12:02:12.139Z,5.30
2019-01-16T12:05:08.904Z,5.00
2019-01-16T12:08:01.921Z,5.10
2019-01-16T12:10:49.363Z,5.20
2019-01-16T12:13:48.310Z,5.40
2019-01-16T12:16:41.326Z,5.60
2019-01-16T12:19:18.421Z,5.60
2019-01-16T12:22:03.916Z,5.50
2019-01-16T12:24:44.805Z,5.50
2019-01-16T12:27:30.404Z,5.50
2019-01-16T12:30:23.492Z,5.50
2019-01-16T12:33:23.161Z,5.40
2019-01-16T12:36:10.556Z,5.40
2019-01-16T12:38:58.801Z,5.60
2019-01-16T12:41:38.856Z,5.60
2019-01-16T12:44:24.354Z,5.50
2019-01-16T12:47:10.119Z,5.30
2019-01-16T12:49:53.255Z,5.10
2019-01-16T12:52:39.131Z,5.20
2019-01-16T12:55:29.664Z,5.30
2019-01-16T12:58:14.683Z,5.30
2019-01-16T13:01:04.951Z,5.40
2019-01-16T13:03:52.086Z,5.30
2019-01-16T13:06:38.254Z,5.30
2019-01-16T13:09:28.094Z,5.40
2019-01-16T13:12:24.590Z,5.30
2019-01-16T13:15:03.518Z,5.20
2019-01-16T13:17:49.594Z,5.10
2019-01-16T13:20:38.436Z,5.10
2019-01-16T13:23:28.655Z,5.10
2019-01-16T13:26:14.321Z,5.30
2019-01-16T13:29:08.033Z,5.30
2019-01-16T13:31:48.208Z,5.40
2019-01-16T13:34:34.059Z,5.30
2019-01-16T13:37:22.404Z,5.20
2019-01-16T13:40:02.112Z,5.30
2019-01-16T13:42:37.925Z,5.50
2019-01-16T13:45:28.298Z,5.40
2019-01-16T13:48:14.447Z,5.20
2019-01-16T13:51:04.688Z,5.30
2019-01-16T13:53:57.437Z,5.10
2019-01-16T13:56:59.446Z,4.90
2019-01-16T13:59:44.392Z,4.90
2019-01-16T14:02:21.348Z,5.20
2019-01-16T14:05:08.614Z,5.00
2019-01-16T14:08:01.811Z,4.90
2019-01-16T14:10:47.358Z,4.90
2019-01-16T14:13:44.061Z,5.00
2019-01-16T14:16:35.834Z,4.90
2019-01-16T14:19:17.455Z,4.80
2019-01-16T14:22:03.328Z,4.80
2019-01-16T14:25:02.410Z,4.80
2019-01-16T14:27:51.477Z,5.00
2019-01-16T14:30:43.406Z,4.80
2019-01-16T14:33:41.015Z,4.80
2019-01-16T14:36:34.511Z,4.80
2019-01-16T14:39:32.875Z,4.70
2019-01-16T14:42:16.845Z,4.80
2019-01-16T14:45:01.958Z,4.90
2019-01-16T14:47:41.047Z,4.80
2019-01-16T14:50:28.536Z,4.60
2019-01-16T14:53:17.456Z,4.60
2019-01-16T14:56:13.378Z,4.30
2019-01-16T14:59:09.316Z,4.40
2019-01-16T15:01:56.819Z,4.50
2019-01-16T15:04:49.883Z,4.50
2019-01-16T15:07:31.769Z,4.50
2019-01-16T15:10:13.870Z,4.50
2019-01-16T15:13:07.004Z,4.40
2019-01-16T15:15:57.117Z,4.40
2019-01-16T15:18:43.170Z,4.30
2019-01-16T15:21:36.947Z,4.40
2019-01-16T15:24:23.102Z,4.40
2019-01-16T15:27:06.808Z,4.50
2019-01-16T15:29:51.158Z,4.50
2019-01-16T15:32:41.464Z,4.60
2019-01-16T15:35:34.514Z,4.70
2019-01-16T15:38:22.008Z,4.60
2019-01-16T15:41:03.097Z,4.60
2019-01-16T15:46:54.955Z,4.60
2019-01-16T15:49:40.615Z,4.60
2019-01-16T15:52:43.548Z,4.50
2019-01-16T15:55:28.406Z,4.40
2019-01-16T15:58:17.216Z,4.30
2019-01-16T16:01:04.357Z,4.40
2019-01-16T16:03:54.964Z,4.40
2019-01-16T16:06:42.226Z,4.30
2019-01-16T16:09:36.284Z,4.40
2019-01-16T16:12:29.440Z,4.20
2019-01-16T16:15:15.598Z,4.30
2019-01-16T16:18:04.653Z,4.40
2019-01-16T16:20:50.195Z,4.50
2019-01-16T16:24:33.828Z,4.60
2019-01-16T16:27:40.004Z,4.60
2019-01-16T16:30:42.245Z,4.50
2019-01-16T16:33:40.824Z,4.60
2019-01-16T16:36:31.336Z,4.50
2019-01-16T16:39:28.837Z,4.40
2019-01-16T16:42:31.693Z,4.50
2019-01-16T16:45:26.353Z,4.40
2019-01-16T16:48:14.818Z,4.30
2019-01-16T16:51:00.283Z,4.30
2019-01-16T16:54:05.495Z,4.50
2019-01-16T16:56:51.462Z,4.40
2019-01-16T16:59:43.323Z,4.40
2019-01-16T17:02:33.830Z,4.40
2019-01-16T17:05:39.353Z,4.30
2019-01-16T17:08:25.798Z,4.20
2019-01-16T17:11:19.088Z,4.20
2019-01-16T17:13:55.789Z,4.00
2019-01-16T17:17:04.564Z,4.30
2019-01-16T17:19:51.883Z,4.10
2019-01-16T17:22:32.488Z,4.10
2019-01-16T17:25:09.593Z,4.30
2019-01-16T17:27:56.889Z,4.30
2019-01-16T17:30:50.502Z,4.40
2019-01-16T17:33:43.909Z,4.30
2019-01-16T17:36:40.591Z,4.30
2019-01-16T17:39:21.482Z,4.30
2019-01-16T17:42:05.912Z,4.30
2019-01-16T17:47:41.339Z,4.20
2019-01-16T17:50:47.614Z,4.10
2019-01-16T17:53:53.866Z,4.30
2019-01-16T17:57:00.185Z,4.20
2019-01-16T18:00:06.821Z,4.10
2019-01-16T18:03:13.118Z,4.20
2019-01-16T18:06:19.427Z,4.20
2019-01-16T18:09:26.008Z,4.40
2019-01-16T18:12:12.918Z,4.30
2019-01-16T18:15:19.386Z,4.30
2019-01-16T18:18:25.738Z,4.30
2019-01-16T18:21:18.755Z,4.50
2019-01-16T18:24:18.255Z,4.50
2019-01-16T18:27:18.094Z,4.50
2019-01-16T18:30:17.447Z,4.70
2019-01-16T18:36:20.332Z,4.80
2019-01-16T18:39:25.307Z,4.70
2019-01-16T18:42:24.839Z,4.50
2019-01-16T18:45:24.077Z,4.50
2019-01-16T18:48:23.070Z,4.50
2019-01-16T18:51:22.297Z,4.50
2019-01-16T18:54:24.451Z,4.40
2019-01-16T18:57:26.380Z,4.40
2019-01-16T19:00:26.023Z,4.30
2019-01-16T19:03:06.922Z,4.40
2019-01-16T19:06:06.371Z,4.40
2019-01-16T19:09:06.042Z,4.50
2019-01-16T19:12:05.668Z,4.50
2019-01-16T19:15:07.993Z,4.50
2019-01-16T19:18:07.286Z,4.60
2019-01-16T19:21:12.604Z,4.60
2019-01-16T19:24:11.985Z,4.60
2019-01-16T19:27:11.393Z,4.70
2019-01-16T19:30:13.348Z,4.70
2019-01-16T19:36:17.009Z,4.60
2019-01-16T19:39:16.392Z,4.60
2019-01-16T19:48:25.430Z,4.80
2019-01-16T19:51:24.382Z,4.80
2019-01-16T19:54:23.888Z,4.70
2019-01-16T19:57:23.539Z,4.70
2019-01-16T20:00:14.068Z,4.70
2019-01-16T20:03:16.213Z,4.70
2019-01-16T20:06:03.036Z,4.60
2019-01-16T20:09:09.354Z,4.80
2019-01-16T20:15:19.736Z,4.80
2019-01-16T20:18:26.035Z,4.70
2019-01-16T20:21:28.551Z,4.80
2019-01-16T20:24:27.640Z,4.80
2019-01-16T20:27:11.094Z,4.70
2019-01-16T20:30:02.196Z,4.80
2019-01-16T20:33:01.117Z,4.80
2019-01-16T20:42:09.114Z,4.70
2019-01-16T20:45:08.495Z,4.70
2019-01-16T20:48:14.049Z,4.60
2019-01-16T20:51:09.332Z,4.60
2019-01-16T20:54:09.251Z,4.70
2019-01-16T20:57:13.987Z,4.60
2019-01-16T21:00:13.581Z,4.60
2019-01-16T21:03:12.534Z,4.60
2019-01-16T21:06:12.094Z,4.60
2019-01-16T21:09:01.641Z,4.60
2019-01-16T21:12:01.794Z,4.40
2019-01-16T21:15:00.708Z,4.50
2019-01-16T21:17:59.874Z,4.50
2019-01-16T21:24:12.498Z,4.60
2019-01-16T21:27:11.744Z,4.50
2019-01-16T21:29:51.645Z,4.50
2019-01-16T21:32:50.998Z,4.60
2019-01-16T21:35:49.190Z,4.50
2019-01-16T21:41:52.913Z,4.60
2019-01-16T21:44:52.127Z,4.60
2019-01-16T21:53:56.004Z,4.50
2019-01-16T21:56:55.471Z,4.50
2019-01-16T21:59:53.162Z,4.60
2019-01-16T22:02:54.083Z,4.50
2019-01-16T22:05:55.834Z,4.50
2019-01-16T22:08:55.387Z,4.60
2019-01-16T22:11:54.545Z,4.70
2019-01-16T22:14:54.773Z,4.70
2019-01-16T22:21:06.223Z,4.60
2019-01-16T22:27:10.404Z,4.70
2019-01-16T22:30:15.961Z,4.60
2019-01-16T22:33:14.956Z,4.50
2019-01-16T22:36:13.987Z,4.60
2019-01-16T22:39:16.283Z,4.60
2019-01-16T22:45:27.698Z,4.60
2019-01-16T22:48:32.951Z,4.60
2019-01-16T22:51:32.243Z,4.60
2019-01-16T22:57:42.820Z,4.80
2019-01-16T23:00:41.955Z,4.60
2019-01-16T23:03:41.260Z,4.50
2019-01-16T23:09:45.475Z,4.50
2019-01-16T23:12:44.750Z,4.30
2019-01-16T23:15:47.332Z,4.40
2019-01-16T23:28:00.444Z,4.50
2019-01-16T23:30:53.420Z,4.50
2019-01-16T23:33:52.471Z,4.50
2019-01-16T23:39:50.049Z,4.30
2019-01-16T23:42:55.510Z,4.50
2019-01-16T23:45:58.385Z,4.50
2019-01-16T23:55:20.123Z,4.50
